createdAt,value
2022-09-23T00:02:59.838Z,99.90
2022-09-23T00:06:24.221Z,99.90
2022-09-23T00:09:46.980Z,99.90
2022-09-23T00:13:08.949Z,99.90
2022-09-23T00:16:34.288Z,99.90
2022-09-23T00:19:56.462Z,99.90
2022-09-23T00:23:18.412Z,99.90
2022-09-23T00:26:40.496Z,99.90
2022-09-23T00:30:04.366Z,99.90
2022-09-23T00:33:26.293Z,99.90
2022-09-23T00:36:48.217Z,99.90
2022-09-23T00:40:12.343Z,99.90
2022-09-23T00:43:52.878Z,99.90
2022-09-23T00:47:22.450Z,99.90
2022-09-23T00:50:48.990Z,99.90
2022-09-23T00:54:11.522Z,99.90
2022-09-23T00:57:35.072Z,99.90
2022-09-23T01:01:01.407Z,99.90
2022-09-23T01:04:27.102Z,99.90
2022-09-23T01:07:50.214Z,99.90
2022-09-23T01:11:19.338Z,99.90
2022-09-23T01:15:02.714Z,99.90
2022-09-23T01:18:32.744Z,99.90
2022-09-23T01:22:40.523Z,99.90
2022-09-23T01:26:17.773Z,99.90
2022-09-23T01:29:58.367Z,99.90
2022-09-23T01:33:49.526Z,99.90
2022-09-23T01:37:19.506Z,99.90
2022-09-23T01:41:12.855Z,99.90
2022-09-23T01:44:43.410Z,99.90
2022-09-23T01:48:26.595Z,99.90
2022-09-23T01:51:54.381Z,99.90
2022-09-23T01:55:31.930Z,99.90
2022-09-23T01:59:06.291Z,99.90
2022-09-23T02:02:36.074Z,99.90
2022-09-23T02:06:13.077Z,99.90
2022-09-23T02:09:43.799Z,99.90
2022-09-23T02:13:15.225Z,99.90
2022-09-23T02:16:47.594Z,99.90
2022-09-23T02:20:13.533Z,99.90
2022-09-23T02:24:00.044Z,99.90
2022-09-23T02:27:39.633Z,99.90
2022-09-23T02:31:21.750Z,99.90
2022-09-23T02:34:59.831Z,99.90
2022-09-23T02:38:37.457Z,99.90
2022-09-23T02:41:59.383Z,99.90
2022-09-23T02:45:21.461Z,99.90
2022-09-23T02:49:13.663Z,99.90
2022-09-23T02:52:38.072Z,99.90
2022-09-23T02:56:01.337Z,99.90
2022-09-23T02:59:24.443Z,99.90
2022-09-23T03:03:01.499Z,99.90
2022-09-23T03:06:39.408Z,99.90
2022-09-23T03:14:29.017Z,99.90
2022-09-23T03:18:04.093Z,99.90
2022-09-23T03:21:29.695Z,99.90
2022-09-23T03:24:54.142Z,99.90
2022-09-23T03:28:17.696Z,99.90
2022-09-23T03:31:43.959Z,99.90
2022-09-23T03:35:06.880Z,99.90
2022-09-23T03:38:34.139Z,99.90
2022-09-23T03:41:59.271Z,99.90
2022-09-23T03:45:26.120Z,99.90
2022-09-23T03:48:49.301Z,99.90
2022-09-23T03:52:11.255Z,99.90
2022-09-23T03:55:34.920Z,99.90
2022-09-23T03:58:57.745Z,99.90
2022-09-23T04:02:20.588Z,99.90
2022-09-23T04:05:43.122Z,99.90
2022-09-23T04:09:05.539Z,99.90
2022-09-23T04:12:29.829Z,99.90
2022-09-23T04:15:51.830Z,99.90
2022-09-23T04:19:15.255Z,99.90
2022-09-23T04:24:04.965Z,99.90
2022-09-23T04:27:33.111Z,99.90
2022-09-23T04:30:57.920Z,99.90
2022-09-23T04:34:20.136Z,99.90
2022-09-23T04:37:44.714Z,99.90
2022-09-23T04:41:20.401Z,99.90
2022-09-23T04:44:51.026Z,99.90
2022-09-23T04:49:04.581Z,99.90
2022-09-23T04:53:04.815Z,99.90
2022-09-23T04:56:43.299Z,99.90
2022-09-23T05:00:45.640Z,99.90
2022-09-23T05:04:23.126Z,99.90
2022-09-23T05:23:40.684Z,99.90
2022-09-23T05:27:02.892Z,99.90
2022-09-23T05:30:25.103Z,99.90
2022-09-23T05:33:57.447Z,99.90
2022-09-23T05:37:19.441Z,99.90
2022-09-23T05:40:41.500Z,99.90
2022-09-23T05:44:03.645Z,99.90
2022-09-23T05:47:25.573Z,99.90
2022-09-23T05:50:53.894Z,99.90
2022-09-23T05:54:15.834Z,99.90
2022-09-23T05:57:37.828Z,99.90
2022-09-23T06:01:00.672Z,99.90
2022-09-23T06:04:22.798Z,99.90
2022-09-23T06:07:44.905Z,99.90
2022-09-23T06:11:08.070Z,99.90
2022-09-23T06:14:29.992Z,99.90
2022-09-23T06:17:52.197Z,95.40
2022-09-23T06:21:16.404Z,83.00
2022-09-23T06:24:38.379Z,76.50
2022-09-23T06:28:00.645Z,71.50
2022-09-23T06:31:22.610Z,67.60
2022-09-23T06:34:51.582Z,63.00
2022-09-23T06:38:14.006Z,59.60
2022-09-23T06:41:36.175Z,57.90
2022-09-23T06:45:00.180Z,57.80
2022-09-23T06:48:24.052Z,55.70
2022-09-23T06:51:46.052Z,54.20
2022-09-23T06:55:10.171Z,53.90
2022-09-23T06:58:34.050Z,55.80
2022-09-23T07:01:56.121Z,57.10
2022-09-23T07:05:18.280Z,58.10
2022-09-23T07:08:44.800Z,55.40
2022-09-23T07:12:07.095Z,54.10
2022-09-23T07:15:29.086Z,55.70
2022-09-23T07:18:52.461Z,55.70
2022-09-23T07:22:14.408Z,55.20
2022-09-23T07:25:36.461Z,53.00
2022-09-23T07:29:04.883Z,52.80
2022-09-23T07:32:33.138Z,49.70
2022-09-23T07:36:09.542Z,49.90
2022-09-23T07:39:31.671Z,47.60
2022-09-23T07:42:53.716Z,49.50
2022-09-23T07:46:17.810Z,48.80
2022-09-23T07:49:40.231Z,49.70
2022-09-23T07:53:03.084Z,48.40
2022-09-23T07:56:27.045Z,46.90
2022-09-23T07:59:49.154Z,44.90
2022-09-23T08:03:11.241Z,46.20
2022-09-23T08:06:33.764Z,46.20
2022-09-23T08:09:57.636Z,46.50
2022-09-23T08:13:21.651Z,45.00
2022-09-23T08:16:50.977Z,44.00
2022-09-23T08:20:33.442Z,45.40
2022-09-23T08:23:55.557Z,43.90
2022-09-23T08:27:17.482Z,43.40
2022-09-23T08:30:40.026Z,45.60
2022-09-23T08:34:02.480Z,43.40
2022-09-23T08:37:24.527Z,45.20
2022-09-23T08:40:50.069Z,43.30
2022-09-23T08:44:20.265Z,43.40
2022-09-23T08:48:12.691Z,46.80
2022-09-23T08:51:56.174Z,43.00
2022-09-23T08:55:19.843Z,43.80
2022-09-23T08:58:44.568Z,43.30
2022-09-23T09:02:21.990Z,42.80
2022-09-23T09:05:53.718Z,41.80
2022-09-23T09:09:30.368Z,38.60
2022-09-23T09:13:03.328Z,38.50
2022-09-23T09:16:58.996Z,42.00
2022-09-23T09:20:35.103Z,41.10
2022-09-23T09:24:02.517Z,43.40
2022-09-23T09:27:24.875Z,41.50
2022-09-23T09:30:51.140Z,42.60
2022-09-23T09:34:22.961Z,42.30
2022-09-23T09:37:48.382Z,42.70
2022-09-23T09:41:17.964Z,42.70
2022-09-23T09:44:59.270Z,44.30
2022-09-23T09:48:37.872Z,43.80
2022-09-23T09:52:22.669Z,45.50
2022-09-23T09:55:46.254Z,44.20
2022-09-23T09:59:16.706Z,43.60
2022-09-23T10:02:40.840Z,44.80
2022-09-23T10:06:15.102Z,44.30
2022-09-23T10:09:38.909Z,45.40
2022-09-23T10:13:19.748Z,46.30
2022-09-23T10:16:42.442Z,45.70
2022-09-23T10:20:09.559Z,45.00
2022-09-23T10:23:34.060Z,43.50
2022-09-23T10:27:09.756Z,43.10
2022-09-23T10:30:33.325Z,46.90
2022-09-23T10:34:00.453Z,47.10
2022-09-23T10:37:35.945Z,49.00
2022-09-23T10:41:16.676Z,46.80
2022-09-23T10:45:15.472Z,45.80
2022-09-23T10:48:57.629Z,45.60
2022-09-23T10:52:22.494Z,47.40
2022-09-23T10:56:04.802Z,46.20
2022-09-23T10:59:50.006Z,45.40
2022-09-23T11:03:35.475Z,45.60
2022-09-23T11:07:00.605Z,45.90
2022-09-23T11:11:00.479Z,44.90
2022-09-23T11:14:38.876Z,50.00
2022-09-23T11:18:06.570Z,47.10
2022-09-23T11:22:02.055Z,48.50
2022-09-23T11:25:28.177Z,47.50
2022-09-23T11:28:56.266Z,47.10
2022-09-23T11:32:35.347Z,46.90
2022-09-23T11:36:07.467Z,47.20
2022-09-23T11:40:04.171Z,48.10
2022-09-23T11:43:29.387Z,48.80
2022-09-23T11:47:39.760Z,50.10
2022-09-23T11:51:28.863Z,46.80
2022-09-23T11:55:21.974Z,48.40
2022-09-23T11:59:08.227Z,47.60
2022-09-23T12:03:02.809Z,47.10
2022-09-23T12:06:37.136Z,45.90
2022-09-23T12:10:08.574Z,46.20
2022-09-23T12:13:44.041Z,47.80
2022-09-23T12:17:15.095Z,48.30
2022-09-23T12:20:42.359Z,50.10
2022-09-23T12:24:07.558Z,46.10
2022-09-23T12:27:43.940Z,47.40
2022-09-23T12:31:11.413Z,47.60
2022-09-23T12:34:49.008Z,48.00
2022-09-23T12:38:40.648Z,48.00
2022-09-23T12:42:15.081Z,48.30
2022-09-23T12:45:39.896Z,48.60
2022-09-23T12:49:04.687Z,48.50
2022-09-23T12:52:32.120Z,47.20
2022-09-23T12:55:54.446Z,47.30
2022-09-23T12:59:16.321Z,47.60
2022-09-23T13:02:40.318Z,51.00
2022-09-23T13:06:21.083Z,50.80
2022-09-23T13:09:45.583Z,48.30
2022-09-23T13:13:37.568Z,49.00
2022-09-23T13:17:00.704Z,48.40
2022-09-23T13:20:23.030Z,49.30
2022-09-23T13:24:19.579Z,47.10
2022-09-23T13:27:53.035Z,47.00
2022-09-23T13:31:16.846Z,46.60
2022-09-23T13:34:39.728Z,49.50
2022-09-23T13:38:11.096Z,47.40
2022-09-23T13:41:33.134Z,50.10
2022-09-23T13:44:57.590Z,50.60
2022-09-23T13:48:23.931Z,48.00
2022-09-23T13:51:46.042Z,47.90
2022-09-23T13:55:37.425Z,48.90
2022-09-23T13:59:17.934Z,49.40
2022-09-23T14:02:47.048Z,51.80
2022-09-23T14:06:13.786Z,51.10
2022-09-23T14:09:36.887Z,50.10
2022-09-23T14:12:59.491Z,49.70
2022-09-23T14:16:25.224Z,49.80
2022-09-23T14:19:47.738Z,49.10
2022-09-23T14:23:14.791Z,49.00
2022-09-23T14:26:37.409Z,50.60
2022-09-23T14:30:02.268Z,49.40
2022-09-23T14:33:34.256Z,50.00
2022-09-23T14:37:15.220Z,51.30
2022-09-23T14:40:38.745Z,50.30
2022-09-23T14:44:02.863Z,50.10
2022-09-23T14:47:25.328Z,49.20
2022-09-23T14:50:51.424Z,48.80
2022-09-23T14:54:37.088Z,49.00
2022-09-23T14:58:05.119Z,50.30
2022-09-23T15:01:33.178Z,50.70
2022-09-23T15:05:18.314Z,51.50
2022-09-23T15:08:40.732Z,53.40
2022-09-23T15:12:07.842Z,54.10
2022-09-23T15:15:30.048Z,55.40
2022-09-23T15:18:55.998Z,56.50
2022-09-23T15:22:18.207Z,54.20
2022-09-23T15:25:41.377Z,52.50
2022-09-23T15:29:09.691Z,51.30
2022-09-23T15:32:31.736Z,52.60
2022-09-23T15:35:54.586Z,52.70
2022-09-23T15:39:16.888Z,52.20
2022-09-23T15:42:38.923Z,54.60
2022-09-23T15:46:07.457Z,52.40
2022-09-23T15:49:36.134Z,54.40
2022-09-23T15:53:00.104Z,53.30
2022-09-23T15:56:24.744Z,53.00
2022-09-23T15:59:46.950Z,57.60
2022-09-23T16:03:14.511Z,57.70
2022-09-23T16:06:38.183Z,57.30
2022-09-23T16:10:00.956Z,56.10
2022-09-23T16:13:23.184Z,59.10
2022-09-23T16:16:48.091Z,54.20
2022-09-23T16:20:11.714Z,57.90
2022-09-23T16:23:39.635Z,57.50
2022-09-23T16:27:05.776Z,55.70
2022-09-23T16:30:55.518Z,56.50
2022-09-23T16:34:20.530Z,56.60
2022-09-23T16:37:47.314Z,59.70
2022-09-23T16:41:12.054Z,62.00
2022-09-23T16:44:34.322Z,62.70
2022-09-23T16:47:56.511Z,64.10
2022-09-23T16:51:21.693Z,65.30
2022-09-23T16:54:43.812Z,64.30
2022-09-23T16:58:05.850Z,66.50
2022-09-23T17:01:48.412Z,66.00
2022-09-23T17:05:13.264Z,66.90
2022-09-23T17:08:36.259Z,68.20
2022-09-23T17:12:42.901Z,68.80
2022-09-23T17:16:05.198Z,69.80
2022-09-23T17:19:28.834Z,70.60
2022-09-23T17:22:52.826Z,70.70
2022-09-23T17:26:15.275Z,73.40
2022-09-23T17:29:37.234Z,73.30
2022-09-23T17:33:00.580Z,74.30
2022-09-23T17:36:23.154Z,73.50
2022-09-23T17:39:45.146Z,75.30
2022-09-23T17:43:08.646Z,76.10
2022-09-23T17:46:32.241Z,75.60
2022-09-23T17:49:56.119Z,74.80
2022-09-23T17:53:18.367Z,75.90
2022-09-23T17:56:43.319Z,75.20
2022-09-23T18:00:07.925Z,77.50
2022-09-23T18:03:36.083Z,78.90
2022-09-23T18:06:58.895Z,78.50
2022-09-23T18:10:21.461Z,78.00
2022-09-23T18:13:48.627Z,78.00
2022-09-23T18:17:10.647Z,80.30
2022-09-23T18:20:32.753Z,79.50
2022-09-23T18:23:59.776Z,79.80
2022-09-23T18:27:29.443Z,79.80
2022-09-23T18:30:56.605Z,78.50
2022-09-23T18:34:20.441Z,82.40
2022-09-23T18:37:43.115Z,80.70
2022-09-23T18:41:05.825Z,81.90
2022-09-23T18:44:28.406Z,80.70
2022-09-23T18:48:09.317Z,80.80
2022-09-23T18:51:35.027Z,82.90
2022-09-23T18:54:57.409Z,81.50
2022-09-23T18:58:20.087Z,80.60
2022-09-23T19:01:42.671Z,80.70
2022-09-23T19:05:05.127Z,80.30
2022-09-23T19:08:27.687Z,80.30
2022-09-23T19:11:54.370Z,79.70
2022-09-23T19:15:19.589Z,79.30
2022-09-23T19:18:46.272Z,78.50
2022-09-23T19:22:09.577Z,79.30
2022-09-23T19:25:31.936Z,78.90
2022-09-23T19:28:56.463Z,80.40
2022-09-23T19:32:18.842Z,80.50
2022-09-23T19:35:51.839Z,80.10
2022-09-23T19:39:26.934Z,79.40
2022-09-23T19:42:51.738Z,79.20
2022-09-23T19:46:14.051Z,79.10
2022-09-23T19:49:36.904Z,79.00
2022-09-23T19:52:59.646Z,78.90
2022-09-23T19:56:22.170Z,79.40
2022-09-23T19:59:45.299Z,79.30
2022-09-23T20:03:09.161Z,79.20
2022-09-23T20:06:34.542Z,79.30
2022-09-23T20:09:57.110Z,79.70
2022-09-23T20:13:19.815Z,80.10
2022-09-23T20:16:42.595Z,80.70
2022-09-23T20:20:05.474Z,80.30
2022-09-23T20:23:29.543Z,80.10
2022-09-23T20:27:10.110Z,80.10
2022-09-23T20:30:32.169Z,80.00
2022-09-23T20:33:59.368Z,80.90
2022-09-23T20:37:25.271Z,80.40
2022-09-23T20:40:57.828Z,80.40
2022-09-23T20:44:20.067Z,80.50
2022-09-23T20:47:42.493Z,80.60
2022-09-23T20:51:06.000Z,81.30
2022-09-23T20:54:29.703Z,81.20
2022-09-23T20:57:52.283Z,79.00
2022-09-23T21:01:15.718Z,81.70
2022-09-23T21:04:37.934Z,82.80
2022-09-23T21:08:03.087Z,83.60
2022-09-23T21:11:26.632Z,84.80
2022-09-23T21:14:49.570Z,85.70
2022-09-23T21:18:18.111Z,86.10
2022-09-23T21:21:43.378Z,86.80
2022-09-23T21:28:50.394Z,88.00
2022-09-23T21:32:12.757Z,89.50
2022-09-23T21:35:35.292Z,88.70
2022-09-23T21:38:58.199Z,89.00
2022-09-23T21:42:20.380Z,88.70
2022-09-23T21:45:42.816Z,88.60
2022-09-23T21:49:05.078Z,88.50
2022-09-23T21:52:27.910Z,88.60
2022-09-23T21:55:51.120Z,87.20
2022-09-23T21:59:14.159Z,87.40
2022-09-23T22:02:39.912Z,86.80
2022-09-23T22:06:05.635Z,88.00
2022-09-23T22:09:27.650Z,86.90
2022-09-23T22:12:49.787Z,87.20
2022-09-23T22:16:16.757Z,86.90
2022-09-23T22:19:45.857Z,86.80
2022-09-23T22:23:08.953Z,85.50
2022-09-23T22:26:39.675Z,88.00
2022-09-23T22:30:19.992Z,86.60
2022-09-23T22:33:41.980Z,86.90
2022-09-23T22:37:04.318Z,86.90
2022-09-23T22:40:26.635Z,85.40
2022-09-23T22:43:50.469Z,85.70
2022-09-23T22:47:12.761Z,86.40
2022-09-23T22:50:34.797Z,86.60
2022-09-23T22:53:57.158Z,87.80
2022-09-23T22:57:19.564Z,87.80
2022-09-23T23:00:41.555Z,88.90
2022-09-23T23:04:05.983Z,87.40
2022-09-23T23:07:28.261Z,87.90
2022-09-23T23:10:50.896Z,88.20
2022-09-23T23:14:15.010Z,88.60
2022-09-23T23:17:38.273Z,88.40
2022-09-23T23:21:13.162Z,88.50
2022-09-23T23:24:35.152Z,87.60
2022-09-23T23:27:57.203Z,88.60
2022-09-23T23:31:21.738Z,88.60
2022-09-23T23:34:43.815Z,87.80
2022-09-23T23:38:06.421Z,88.40
2022-09-23T23:41:28.816Z,88.30
2022-09-23T23:44:50.765Z,88.00
2022-09-23T23:48:13.555Z,87.90
2022-09-23T23:51:35.548Z,87.50
2022-09-23T23:54:57.619Z,88.80
2022-09-23T23:58:19.602Z,89.10
